sensor_id;sensor_type;location;lat;lon;timestamp;temperature;humidity
35531;DHT22;21637;53.352;-6.356;2022-11-09T00:01:09;9.90;99.90
35531;DHT22;21637;53.352;-6.356;2022-11-09T00:03:35;9.90;99.90
35531;DHT22;21637;53.352;-6.356;2022-11-09T00:06:01;9.90;99.90
35531;DHT22;21637;53.352;-6.356;2022-11-09T00:08:27;9.90;99.90
35531;DHT22;21637;53.352;-6.356;2022-11-09T00:10:53;9.90;99.90
35531;DHT22;21637;53.352;-6.356;2022-11-09T00:13:18;9.90;99.90
35531;DHT22;21637;53.352;-6.356;2022-11-09T00:15:44;9.90;99.90
35531;DHT22;21637;53.352;-6.356;2022-11-09T00:18:09;9.90;99.90
35531;DHT22;21637;53.352;-6.356;2022-11-09T00:20:35;9.90;99.90
35531;DHT22;21637;53.352;-6.356;2022-11-09T00:23:00;9.90;99.90
35531;DHT22;21637;53.352;-6.356;2022-11-09T00:25:26;9.90;99.90
35531;DHT22;21637;53.352;-6.356;2022-11-09T00:27:52;9.90;99.90
35531;DHT22;21637;53.352;-6.356;2022-11-09T00:30:17;9.80;99.90
35531;DHT22;21637;53.352;-6.356;2022-11-09T00:32:43;9.90;99.90
35531;DHT22;21637;53.352;-6.356;2022-11-09T00:35:08;9.90;99.90
35531;DHT22;21637;53.352;-6.356;2022-11-09T00:37:34;9.90;99.90
35531;DHT22;21637;53.352;-6.356;2022-11-09T00:40:00;9.90;99.90
35531;DHT22;21637;53.352;-6.356;2022-11-09T00:42:25;9.90;99.90
35531;DHT22;21637;53.352;-6.356;2022-11-09T00:44:51;10.00;99.90
35531;DHT22;21637;53.352;-6.356;2022-11-09T00:47:16;10.00;99.90
35531;DHT22;21637;53.352;-6.356;2022-11-09T00:49:42;10.00;99.90
35531;DHT22;21637;53.352;-6.356;2022-11-09T00:52:07;10.00;99.90
35531;DHT22;21637;53.352;-6.356;2022-11-09T00:54:33;10.10;99.90
35531;DHT22;21637;53.352;-6.356;2022-11-09T00:56:59;10.00;99.90
35531;DHT22;21637;53.352;-6.356;2022-11-09T00:59:24;10.00;99.90
35531;DHT22;21637;53.352;-6.356;2022-11-09T01:01:50;10.00;99.90
35531;DHT22;21637;53.352;-6.356;2022-11-09T01:04:15;9.90;99.90
35531;DHT22;21637;53.352;-6.356;2022-11-09T01:06:41;9.90;99.90
35531;DHT22;21637;53.352;-6.356;2022-11-09T01:09:06;9.90;99.90
35531;DHT22;21637;53.352;-6.356;2022-11-09T01:11:32;9.90;99.90
35531;DHT22;21637;53.352;-6.356;2022-11-09T01:13:58;9.80;99.90
35531;DHT22;21637;53.352;-6.356;2022-11-09T01:16:24;9.80;99.90
35531;DHT22;21637;53.352;-6.356;2022-11-09T01:18:53;9.70;99.90
35531;DHT22;21637;53.352;-6.356;2022-11-09T01:21:19;9.70;99.90
35531;DHT22;21637;53.352;-6.356;2022-11-09T01:23:45;9.70;99.90
35531;DHT22;21637;53.352;-6.356;2022-11-09T01:26:12;9.60;99.90
35531;DHT22;21637;53.352;-6.356;2022-11-09T01:28:38;9.60;99.90
35531;DHT22;21637;53.352;-6.356;2022-11-09T01:31:07;9.60;99.90
35531;DHT22;21637;53.352;-6.356;2022-11-09T01:33:34;9.60;99.90
35531;DHT22;21637;53.352;-6.356;2022-11-09T01:36:01;9.50;99.90
35531;DHT22;21637;53.352;-6.356;2022-11-09T01:38:26;9.50;99.90
35531;DHT22;21637;53.352;-6.356;2022-11-09T01:40:52;9.50;99.90
35531;DHT22;21637;53.352;-6.356;2022-11-09T01:43:19;9.60;99.90
35531;DHT22;21637;53.352;-6.356;2022-11-09T01:45:46;9.50;99.90
35531;DHT22;21637;53.352;-6.356;2022-11-09T01:48:15;9.50;99.90
35531;DHT22;21637;53.352;-6.356;2022-11-09T01:50:58;9.50;99.90
35531;DHT22;21637;53.352;-6.356;2022-11-09T01:53:26;9.50;99.90
35531;DHT22;21637;53.352;-6.356;2022-11-09T01:55:54;9.50;99.90
35531;DHT22;21637;53.352;-6.356;2022-11-09T01:58:21;9.50;99.90
35531;DHT22;21637;53.352;-6.356;2022-11-09T02:00:49;9.40;99.90
35531;DHT22;21637;53.352;-6.356;2022-11-09T02:03:24;9.40;99.90
35531;DHT22;21637;53.352;-6.356;2022-11-09T02:05:50;9.40;99.90
35531;DHT22;21637;53.352;-6.356;2022-11-09T02:08:17;9.40;99.90
35531;DHT22;21637;53.352;-6.356;2022-11-09T02:13:09;9.40;99.90
35531;DHT22;21637;53.352;-6.356;2022-11-09T02:15:36;9.30;99.90
35531;DHT22;21637;53.352;-6.356;2022-11-09T02:18:02;9.30;99.90
35531;DHT22;21637;53.352;-6.356;2022-11-09T02:20:28;9.30;99.90
35531;DHT22;21637;53.352;-6.356;2022-11-09T02:22:54;9.30;99.90
35531;DHT22;21637;53.352;-6.356;2022-11-09T02:25:19;9.30;99.90
35531;DHT22;21637;53.352;-6.356;2022-11-09T02:27:45;9.30;99.90
35531;DHT22;21637;53.352;-6.356;2022-11-09T02:30:11;9.30;99.90
35531;DHT22;21637;53.352;-6.356;2022-11-09T02:32:37;9.20;99.90
35531;DHT22;21637;53.352;-6.356;2022-11-09T02:35:02;9.20;99.90
35531;DHT22;21637;53.352;-6.356;2022-11-09T02:37:36;9.20;99.90
35531;DHT22;21637;53.352;-6.356;2022-11-09T02:40:03;9.20;99.90
35531;DHT22;21637;53.352;-6.356;2022-11-09T02:42:30;9.20;99.90
35531;DHT22;21637;53.352;-6.356;2022-11-09T02:44:57;9.30;99.90
35531;DHT22;21637;53.352;-6.356;2022-11-09T02:47:23;9.30;99.90
35531;DHT22;21637;53.352;-6.356;2022-11-09T02:49:49;9.30;99.90
35531;DHT22;21637;53.352;-6.356;2022-11-09T02:52:15;9.30;99.90
35531;DHT22;21637;53.352;-6.356;2022-11-09T02:54:40;9.30;99.90
35531;DHT22;21637;53.352;-6.356;2022-11-09T02:57:06;9.30;99.90
35531;DHT22;21637;53.352;-6.356;2022-11-09T02:59:31;9.40;99.90
35531;DHT22;21637;53.352;-6.356;2022-11-09T03:01:57;9.40;99.90
35531;DHT22;21637;53.352;-6.356;2022-11-09T03:04:23;9.30;99.90
35531;DHT22;21637;53.352;-6.356;2022-11-09T03:06:48;9.30;99.90
35531;DHT22;21637;53.352;-6.356;2022-11-09T03:09:14;9.30;99.90
35531;DHT22;21637;53.352;-6.356;2022-11-09T03:11:40;9.40;99.90
35531;DHT22;21637;53.352;-6.356;2022-11-09T03:14:06;9.30;99.90
35531;DHT22;21637;53.352;-6.356;2022-11-09T03:16:34;9.30;99.90
35531;DHT22;21637;53.352;-6.356;2022-11-09T03:18:59;9.30;99.90
35531;DHT22;21637;53.352;-6.356;2022-11-09T03:21:25;9.30;99.90
35531;DHT22;21637;53.352;-6.356;2022-11-09T03:23:50;9.20;99.90
35531;DHT22;21637;53.352;-6.356;2022-11-09T03:26:16;9.20;99.90
35531;DHT22;21637;53.352;-6.356;2022-11-09T03:28:42;9.20;99.90
35531;DHT22;21637;53.352;-6.356;2022-11-09T03:31:07;9.20;99.90
35531;DHT22;21637;53.352;-6.356;2022-11-09T03:33:33;9.30;99.90
35531;DHT22;21637;53.352;-6.356;2022-11-09T03:35:59;9.30;99.90
35531;DHT22;21637;53.352;-6.356;2022-11-09T03:38:24;9.30;99.90
35531;DHT22;21637;53.352;-6.356;2022-11-09T03:40:50;9.30;99.90
35531;DHT22;21637;53.352;-6.356;2022-11-09T03:43:15;9.30;99.90
35531;DHT22;21637;53.352;-6.356;2022-11-09T03:45:41;9.20;99.90
35531;DHT22;21637;53.352;-6.356;2022-11-09T03:48:07;9.20;99.90
35531;DHT22;21637;53.352;-6.356;2022-11-09T03:50:32;9.20;99.90
35531;DHT22;21637;53.352;-6.356;2022-11-09T03:52:59;9.20;99.90
35531;DHT22;21637;53.352;-6.356;2022-11-09T03:55:25;9.20;99.90
35531;DHT22;21637;53.352;-6.356;2022-11-09T03:57:50;9.20;99.90
35531;DHT22;21637;53.352;-6.356;2022-11-09T04:00:17;9.20;99.90
35531;DHT22;21637;53.352;-6.356;2022-11-09T04:02:43;9.20;99.90
35531;DHT22;21637;53.352;-6.356;2022-11-09T04:05:09;9.20;99.90
35531;DHT22;21637;53.352;-6.356;2022-11-09T04:07:34;9.20;99.90
35531;DHT22;21637;53.352;-6.356;2022-11-09T04:10:00;9.20;99.90
35531;DHT22;21637;53.352;-6.356;2022-11-09T04:12:26;9.20;99.90
35531;DHT22;21637;53.352;-6.356;2022-11-09T04:14:51;9.20;99.90
35531;DHT22;21637;53.352;-6.356;2022-11-09T04:17:17;9.20;99.90
35531;DHT22;21637;53.352;-6.356;2022-11-09T04:19:42;9.10;99.90
35531;DHT22;21637;53.352;-6.356;2022-11-09T04:22:08;9.10;99.90
35531;DHT22;21637;53.352;-6.356;2022-11-09T04:24:34;9.10;99.90
35531;DHT22;21637;53.352;-6.356;2022-11-09T04:26:59;9.10;99.90
35531;DHT22;21637;53.352;-6.356;2022-11-09T04:29:25;9.10;99.90
35531;DHT22;21637;53.352;-6.356;2022-11-09T04:31:50;9.10;99.90
35531;DHT22;21637;53.352;-6.356;2022-11-09T04:34:16;9.10;99.90
35531;DHT22;21637;53.352;-6.356;2022-11-09T04:36:41;9.10;99.90
35531;DHT22;21637;53.352;-6.356;2022-11-09T04:39:07;9.10;99.90
35531;DHT22;21637;53.352;-6.356;2022-11-09T04:41:33;9.10;99.90
35531;DHT22;21637;53.352;-6.356;2022-11-09T04:43:58;9.10;99.90
35531;DHT22;21637;53.352;-6.356;2022-11-09T04:46:24;9.10;99.90
35531;DHT22;21637;53.352;-6.356;2022-11-09T04:48:49;9.10;99.90
35531;DHT22;21637;53.352;-6.356;2022-11-09T04:51:15;9.10;99.90
35531;DHT22;21637;53.352;-6.356;2022-11-09T04:53:40;9.00;99.90
35531;DHT22;21637;53.352;-6.356;2022-11-09T04:56:06;9.10;99.90
35531;DHT22;21637;53.352;-6.356;2022-11-09T04:58:32;9.20;99.90
35531;DHT22;21637;53.352;-6.356;2022-11-09T05:01:01;9.20;99.90
35531;DHT22;21637;53.352;-6.356;2022-11-09T05:03:41;9.20;99.90
35531;DHT22;21637;53.352;-6.356;2022-11-09T05:06:07;9.30;99.90
35531;DHT22;21637;53.352;-6.356;2022-11-09T05:08:52;9.30;99.90
35531;DHT22;21637;53.352;-6.356;2022-11-09T05:11:17;9.30;99.90
35531;DHT22;21637;53.352;-6.356;2022-11-09T05:13:43;9.20;99.90
35531;DHT22;21637;53.352;-6.356;2022-11-09T05:16:09;9.30;99.90
35531;DHT22;21637;53.352;-6.356;2022-11-09T05:18:34;9.30;99.90
35531;DHT22;21637;53.352;-6.356;2022-11-09T05:21:00;9.30;99.90
35531;DHT22;21637;53.352;-6.356;2022-11-09T05:23:26;9.40;99.90
35531;DHT22;21637;53.352;-6.356;2022-11-09T05:26:10;9.40;99.90
35531;DHT22;21637;53.352;-6.356;2022-11-09T05:28:35;9.40;99.90
35531;DHT22;21637;53.352;-6.356;2022-11-09T05:31:01;9.30;99.90
35531;DHT22;21637;53.352;-6.356;2022-11-09T05:33:26;9.30;99.90
35531;DHT22;21637;53.352;-6.356;2022-11-09T05:35:55;9.20;99.90
35531;DHT22;21637;53.352;-6.356;2022-11-09T05:38:21;9.10;99.90
35531;DHT22;21637;53.352;-6.356;2022-11-09T05:40:47;9.10;99.90
35531;DHT22;21637;53.352;-6.356;2022-11-09T05:43:13;9.10;99.90
35531;DHT22;21637;53.352;-6.356;2022-11-09T05:45:39;9.00;99.90
35531;DHT22;21637;53.352;-6.356;2022-11-09T05:48:04;9.00;99.90
35531;DHT22;21637;53.352;-6.356;2022-11-09T05:50:30;8.90;99.90
35531;DHT22;21637;53.352;-6.356;2022-11-09T05:52:57;9.00;99.90
35531;DHT22;21637;53.352;-6.356;2022-11-09T05:55:23;8.90;99.90
35531;DHT22;21637;53.352;-6.356;2022-11-09T05:57:48;9.00;99.90
35531;DHT22;21637;53.352;-6.356;2022-11-09T06:00:14;9.00;99.90
35531;DHT22;21637;53.352;-6.356;2022-11-09T06:02:39;9.00;99.90
35531;DHT22;21637;53.352;-6.356;2022-11-09T06:05:05;9.00;99.90
35531;DHT22;21637;53.352;-6.356;2022-11-09T06:07:31;9.00;99.90
35531;DHT22;21637;53.352;-6.356;2022-11-09T06:09:57;9.00;99.90
35531;DHT22;21637;53.352;-6.356;2022-11-09T06:12:22;9.00;99.90
35531;DHT22;21637;53.352;-6.356;2022-11-09T06:14:48;9.10;99.90
35531;DHT22;21637;53.352;-6.356;2022-11-09T06:17:13;9.10;99.90
35531;DHT22;21637;53.352;-6.356;2022-11-09T06:19:39;9.10;99.90
35531;DHT22;21637;53.352;-6.356;2022-11-09T06:22:05;9.10;99.90
35531;DHT22;21637;53.352;-6.356;2022-11-09T06:24:30;9.10;99.90
35531;DHT22;21637;53.352;-6.356;2022-11-09T06:26:56;9.00;99.90
35531;DHT22;21637;53.352;-6.356;2022-11-09T06:29:21;9.10;99.90
35531;DHT22;21637;53.352;-6.356;2022-11-09T06:31:47;9.00;99.90
35531;DHT22;21637;53.352;-6.356;2022-11-09T06:34:13;9.00;99.90
35531;DHT22;21637;53.352;-6.356;2022-11-09T06:36:39;9.10;99.90
35531;DHT22;21637;53.352;-6.356;2022-11-09T06:39:05;9.10;99.90
35531;DHT22;21637;53.352;-6.356;2022-11-09T06:41:33;9.20;99.90
35531;DHT22;21637;53.352;-6.356;2022-11-09T06:43:59;9.10;99.90
35531;DHT22;21637;53.352;-6.356;2022-11-09T06:46:24;9.20;99.90
35531;DHT22;21637;53.352;-6.356;2022-11-09T06:48:50;9.20;99.90
35531;DHT22;21637;53.352;-6.356;2022-11-09T06:51:16;9.20;99.90
35531;DHT22;21637;53.352;-6.356;2022-11-09T06:53:42;9.20;99.90
35531;DHT22;21637;53.352;-6.356;2022-11-09T06:56:08;9.20;99.90
35531;DHT22;21637;53.352;-6.356;2022-11-09T06:58:34;9.20;99.90
35531;DHT22;21637;53.352;-6.356;2022-11-09T07:01:00;9.20;99.90
35531;DHT22;21637;53.352;-6.356;2022-11-09T07:03:30;9.10;99.90
35531;DHT22;21637;53.352;-6.356;2022-11-09T07:05:55;9.10;99.90
35531;DHT22;21637;53.352;-6.356;2022-11-09T07:08:21;9.10;99.90
35531;DHT22;21637;53.352;-6.356;2022-11-09T07:10:46;9.10;99.90
35531;DHT22;21637;53.352;-6.356;2022-11-09T07:13:12;9.10;99.90
35531;DHT22;21637;53.352;-6.356;2022-11-09T07:15:38;9.10;99.90
35531;DHT22;21637;53.352;-6.356;2022-11-09T07:18:04;9.10;99.90
35531;DHT22;21637;53.352;-6.356;2022-11-09T07:20:30;9.10;99.90
35531;DHT22;21637;53.352;-6.356;2022-11-09T07:22:56;9.10;99.90
35531;DHT22;21637;53.352;-6.356;2022-11-09T07:25:22;9.10;99.90
35531;DHT22;21637;53.352;-6.356;2022-11-09T07:27:47;9.00;99.90
35531;DHT22;21637;53.352;-6.356;2022-11-09T07:30:13;9.00;99.90
35531;DHT22;21637;53.352;-6.356;2022-11-09T07:32:39;9.00;99.90
35531;DHT22;21637;53.352;-6.356;2022-11-09T07:35:05;9.10;99.90
35531;DHT22;21637;53.352;-6.356;2022-11-09T07:37:31;9.20;99.90
35531;DHT22;21637;53.352;-6.356;2022-11-09T07:39:57;9.20;99.90
35531;DHT22;21637;53.352;-6.356;2022-11-09T07:42:23;9.20;99.90
35531;DHT22;21637;53.352;-6.356;2022-11-09T07:44:49;9.20;99.90
35531;DHT22;21637;53.352;-6.356;2022-11-09T07:47:15;9.30;99.90
35531;DHT22;21637;53.352;-6.356;2022-11-09T07:49:40;9.30;99.90
35531;DHT22;21637;53.352;-6.356;2022-11-09T07:52:06;9.30;99.90
35531;DHT22;21637;53.352;-6.356;2022-11-09T07:54:31;9.30;99.90
35531;DHT22;21637;53.352;-6.356;2022-11-09T07:56:57;9.30;99.90
35531;DHT22;21637;53.352;-6.356;2022-11-09T07:59:22;9.30;99.90
35531;DHT22;21637;53.352;-6.356;2022-11-09T08:01:48;9.30;99.90
35531;DHT22;21637;53.352;-6.356;2022-11-09T08:04:14;9.30;99.90
35531;DHT22;21637;53.352;-6.356;2022-11-09T08:06:39;9.30;99.90
35531;DHT22;21637;53.352;-6.356;2022-11-09T08:09:05;9.30;99.90
35531;DHT22;21637;53.352;-6.356;2022-11-09T08:11:30;9.30;99.90
35531;DHT22;21637;53.352;-6.356;2022-11-09T08:13:56;9.30;99.90
35531;DHT22;21637;53.352;-6.356;2022-11-09T08:16:22;9.20;99.90
35531;DHT22;21637;53.352;-6.356;2022-11-09T08:18:48;9.20;99.90
35531;DHT22;21637;53.352;-6.356;2022-11-09T08:21:14;9.10;99.90
35531;DHT22;21637;53.352;-6.356;2022-11-09T08:23:39;9.10;99.90
35531;DHT22;21637;53.352;-6.356;2022-11-09T08:26:05;9.00;99.90
35531;DHT22;21637;53.352;-6.356;2022-11-09T08:28:31;9.10;99.90
35531;DHT22;21637;53.352;-6.356;2022-11-09T08:30:58;9.10;99.90
35531;DHT22;21637;53.352;-6.356;2022-11-09T08:33:24;9.20;99.90
35531;DHT22;21637;53.352;-6.356;2022-11-09T08:35:51;9.20;99.90
35531;DHT22;21637;53.352;-6.356;2022-11-09T08:38:17;9.30;99.90
35531;DHT22;21637;53.352;-6.356;2022-11-09T08:40:42;9.30;99.90
35531;DHT22;21637;53.352;-6.356;2022-11-09T08:43:08;9.20;99.90
35531;DHT22;21637;53.352;-6.356;2022-11-09T08:45:35;9.10;99.90
35531;DHT22;21637;53.352;-6.356;2022-11-09T08:48:01;9.10;99.90
35531;DHT22;21637;53.352;-6.356;2022-11-09T08:50:27;9.00;99.90
35531;DHT22;21637;53.352;-6.356;2022-11-09T08:52:53;8.90;99.90
35531;DHT22;21637;53.352;-6.356;2022-11-09T08:55:19;8.90;99.90
35531;DHT22;21637;53.352;-6.356;2022-11-09T08:57:44;8.90;99.90
35531;DHT22;21637;53.352;-6.356;2022-11-09T09:00:10;8.90;99.90
35531;DHT22;21637;53.352;-6.356;2022-11-09T09:02:36;8.90;99.90
35531;DHT22;21637;53.352;-6.356;2022-11-09T09:05:02;8.90;99.90
35531;DHT22;21637;53.352;-6.356;2022-11-09T09:07:27;8.90;99.90
35531;DHT22;21637;53.352;-6.356;2022-11-09T09:09:53;8.90;99.90
35531;DHT22;21637;53.352;-6.356;2022-11-09T09:12:18;8.90;99.90
35531;DHT22;21637;53.352;-6.356;2022-11-09T09:14:44;8.90;99.90
35531;DHT22;21637;53.352;-6.356;2022-11-09T09:17:10;8.90;99.90
35531;DHT22;21637;53.352;-6.356;2022-11-09T09:19:35;8.90;99.90
35531;DHT22;21637;53.352;-6.356;2022-11-09T09:22:01;8.90;99.90
35531;DHT22;21637;53.352;-6.356;2022-11-09T09:24:27;8.90;99.90
35531;DHT22;21637;53.352;-6.356;2022-11-09T09:26:53;8.80;99.90
35531;DHT22;21637;53.352;-6.356;2022-11-09T09:29:18;8.90;99.90
35531;DHT22;21637;53.352;-6.356;2022-11-09T09:31:44;8.80;99.90
35531;DHT22;21637;53.352;-6.356;2022-11-09T09:34:09;8.80;99.90
35531;DHT22;21637;53.352;-6.356;2022-11-09T09:36:36;8.70;99.90
35531;DHT22;21637;53.352;-6.356;2022-11-09T09:39:01;8.80;99.90
35531;DHT22;21637;53.352;-6.356;2022-11-09T09:43:54;8.70;99.90
35531;DHT22;21637;53.352;-6.356;2022-11-09T09:49:12;8.90;99.90
35531;DHT22;21637;53.352;-6.356;2022-11-09T09:51:44;8.90;99.90
35531;DHT22;21637;53.352;-6.356;2022-11-09T09:54:14;9.00;99.90
35531;DHT22;21637;53.352;-6.356;2022-11-09T09:56:42;9.00;99.90
35531;DHT22;21637;53.352;-6.356;2022-11-09T10:01:35;9.20;99.90
35531;DHT22;21637;53.352;-6.356;2022-11-09T10:04:01;9.40;99.90
35531;DHT22;21637;53.352;-6.356;2022-11-09T10:09:19;9.40;99.90
35531;DHT22;21637;53.352;-6.356;2022-11-09T10:11:54;9.40;99.90
35531;DHT22;21637;53.352;-6.356;2022-11-09T10:14:43;9.50;99.90
35531;DHT22;21637;53.352;-6.356;2022-11-09T10:22:24;9.60;99.90
35531;DHT22;21637;53.352;-6.356;2022-11-09T10:27:35;9.60;99.90
35531;DHT22;21637;53.352;-6.356;2022-11-09T10:30:06;9.70;99.90
35531;DHT22;21637;53.352;-6.356;2022-11-09T10:32:32;9.70;99.90
35531;DHT22;21637;53.352;-6.356;2022-11-09T10:35:04;9.80;99.90
35531;DHT22;21637;53.352;-6.356;2022-11-09T10:37:38;9.80;99.90
35531;DHT22;21637;53.352;-6.356;2022-11-09T10:42:32;9.80;99.90
35531;DHT22;21637;53.352;-6.356;2022-11-09T10:44:58;9.80;99.90
35531;DHT22;21637;53.352;-6.356;2022-11-09T10:47:32;9.80;99.90
35531;DHT22;21637;53.352;-6.356;2022-11-09T10:50:20;9.90;99.90
35531;DHT22;21637;53.352;-6.356;2022-11-09T10:52:46;9.90;99.90
35531;DHT22;21637;53.352;-6.356;2022-11-09T10:55:34;10.00;99.90
35531;DHT22;21637;53.352;-6.356;2022-11-09T10:58:47;10.00;99.90
35531;DHT22;21637;53.352;-6.356;2022-11-09T11:03:28;10.10;99.90
35531;DHT22;21637;53.352;-6.356;2022-11-09T11:05:58;10.20;99.90
35531;DHT22;21637;53.352;-6.356;2022-11-09T11:08:26;10.20;99.90
35531;DHT22;21637;53.352;-6.356;2022-11-09T11:11:02;10.30;99.90
35531;DHT22;21637;53.352;-6.356;2022-11-09T11:13:30;10.40;99.90
35531;DHT22;21637;53.352;-6.356;2022-11-09T11:15:56;10.50;99.90
35531;DHT22;21637;53.352;-6.356;2022-11-09T11:18:23;10.50;99.90
35531;DHT22;21637;53.352;-6.356;2022-11-09T11:23:31;10.50;99.90
35531;DHT22;21637;53.352;-6.356;2022-11-09T11:26:19;10.50;99.90
35531;DHT22;21637;53.352;-6.356;2022-11-09T11:28:52;10.60;99.90
35531;DHT22;21637;53.352;-6.356;2022-11-09T11:31:20;10.60;99.90
35531;DHT22;21637;53.352;-6.356;2022-11-09T11:33:46;10.70;99.90
35531;DHT22;21637;53.352;-6.356;2022-11-09T11:46:40;11.00;99.90
35531;DHT22;21637;53.352;-6.356;2022-11-09T11:54:12;11.20;99.90
35531;DHT22;21637;53.352;-6.356;2022-11-09T11:56:46;11.20;99.90
35531;DHT22;21637;53.352;-6.356;2022-11-09T11:59:25;11.30;99.90
35531;DHT22;21637;53.352;-6.356;2022-11-09T12:17:27;11.70;99.90
35531;DHT22;21637;53.352;-6.356;2022-11-09T12:19:57;11.80;99.90
35531;DHT22;21637;53.352;-6.356;2022-11-09T12:24:58;11.90;99.90
35531;DHT22;21637;53.352;-6.356;2022-11-09T12:27:34;11.90;99.90
35531;DHT22;21637;53.352;-6.356;2022-11-09T12:30:17;11.90;99.90
35531;DHT22;21637;53.352;-6.356;2022-11-09T12:32:53;12.00;99.90
35531;DHT22;21637;53.352;-6.356;2022-11-09T12:37:53;12.20;99.90
35531;DHT22;21637;53.352;-6.356;2022-11-09T12:40:31;12.20;99.90
35531;DHT22;21637;53.352;-6.356;2022-11-09T12:42:59;12.30;99.90
35531;DHT22;21637;53.352;-6.356;2022-11-09T12:45:28;12.40;99.90
35531;DHT22;21637;53.352;-6.356;2022-11-09T12:47:55;12.40;99.90
35531;DHT22;21637;53.352;-6.356;2022-11-09T12:50:22;12.50;99.90
35531;DHT22;21637;53.352;-6.356;2022-11-09T12:52:50;12.50;99.90
35531;DHT22;21637;53.352;-6.356;2022-11-09T12:55:25;12.60;99.90
35531;DHT22;21637;53.352;-6.356;2022-11-09T12:57:52;12.60;99.90
35531;DHT22;21637;53.352;-6.356;2022-11-09T13:03:03;12.60;99.90
35531;DHT22;21637;53.352;-6.356;2022-11-09T13:07:58;12.50;99.90
35531;DHT22;21637;53.352;-6.356;2022-11-09T13:12:50;12.50;99.90
35531;DHT22;21637;53.352;-6.356;2022-11-09T13:15:25;12.50;99.90
35531;DHT22;21637;53.352;-6.356;2022-11-09T13:17:54;12.50;99.90
35531;DHT22;21637;53.352;-6.356;2022-11-09T13:22:59;12.40;99.90
35531;DHT22;21637;53.352;-6.356;2022-11-09T13:31:07;12.40;99.90
35531;DHT22;21637;53.352;-6.356;2022-11-09T13:33:33;12.40;99.90
35531;DHT22;21637;53.352;-6.356;2022-11-09T13:36:19;12.40;99.90
35531;DHT22;21637;53.352;-6.356;2022-11-09T13:38:44;12.50;99.90
35531;DHT22;21637;53.352;-6.356;2022-11-09T13:46:38;12.60;99.90
35531;DHT22;21637;53.352;-6.356;2022-11-09T13:49:25;12.50;99.90
35531;DHT22;21637;53.352;-6.356;2022-11-09T13:51:49;12.50;99.90
35531;DHT22;21637;53.352;-6.356;2022-11-09T13:56:52;12.40;99.90
35531;DHT22;21637;53.352;-6.356;2022-11-09T13:59:22;12.40;99.90
35531;DHT22;21637;53.352;-6.356;2022-11-09T14:01:51;12.30;99.90
35531;DHT22;21637;53.352;-6.356;2022-11-09T14:06:46;12.30;99.90
35531;DHT22;21637;53.352;-6.356;2022-11-09T14:09:13;12.20;99.90
35531;DHT22;21637;53.352;-6.356;2022-11-09T14:12:02;12.20;99.90
35531;DHT22;21637;53.352;-6.356;2022-11-09T14:17:23;12.00;99.90
35531;DHT22;21637;53.352;-6.356;2022-11-09T14:22:26;12.10;99.90
35531;DHT22;21637;53.352;-6.356;2022-11-09T14:24:55;12.00;99.90
35531;DHT22;21637;53.352;-6.356;2022-11-09T14:27:21;12.00;99.90
35531;DHT22;21637;53.352;-6.356;2022-11-09T14:29:48;12.00;99.90
35531;DHT22;21637;53.352;-6.356;2022-11-09T14:34:42;12.00;99.90
35531;DHT22;21637;53.352;-6.356;2022-11-09T14:37:09;12.00;99.90
35531;DHT22;21637;53.352;-6.356;2022-11-09T14:39:35;12.10;99.90
35531;DHT22;21637;53.352;-6.356;2022-11-09T14:42:02;12.10;99.90
35531;DHT22;21637;53.352;-6.356;2022-11-09T14:44:30;12.10;99.90
35531;DHT22;21637;53.352;-6.356;2022-11-09T14:47:03;12.20;99.90
35531;DHT22;21637;53.352;-6.356;2022-11-09T14:49:29;12.30;99.90
35531;DHT22;21637;53.352;-6.356;2022-11-09T14:51:55;12.30;99.90
35531;DHT22;21637;53.352;-6.356;2022-11-09T14:54:22;12.30;99.90
35531;DHT22;21637;53.352;-6.356;2022-11-09T14:56:49;12.30;99.90
35531;DHT22;21637;53.352;-6.356;2022-11-09T14:59:15;12.40;99.90
35531;DHT22;21637;53.352;-6.356;2022-11-09T15:04:50;12.40;99.90
35531;DHT22;21637;53.352;-6.356;2022-11-09T15:07:16;12.30;99.90
35531;DHT22;21637;53.352;-6.356;2022-11-09T15:09:45;12.30;99.90
35531;DHT22;21637;53.352;-6.356;2022-11-09T15:12:14;12.30;99.90
35531;DHT22;21637;53.352;-6.356;2022-11-09T15:14:41;12.30;99.90
35531;DHT22;21637;53.352;-6.356;2022-11-09T15:19:34;12.30;99.90
35531;DHT22;21637;53.352;-6.356;2022-11-09T15:22:01;12.20;99.90
35531;DHT22;21637;53.352;-6.356;2022-11-09T15:24:27;12.20;99.90
35531;DHT22;21637;53.352;-6.356;2022-11-09T15:26:53;12.20;99.90
35531;DHT22;21637;53.352;-6.356;2022-11-09T15:29:26;12.20;99.90
35531;DHT22;21637;53.352;-6.356;2022-11-09T15:31:56;12.20;99.90
35531;DHT22;21637;53.352;-6.356;2022-11-09T15:34:23;12.10;99.90
35531;DHT22;21637;53.352;-6.356;2022-11-09T15:36:52;12.10;99.90
35531;DHT22;21637;53.352;-6.356;2022-11-09T15:39:19;12.10;99.90
35531;DHT22;21637;53.352;-6.356;2022-11-09T15:41:44;12.10;99.90
35531;DHT22;21637;53.352;-6.356;2022-11-09T15:44:11;12.10;99.90
35531;DHT22;21637;53.352;-6.356;2022-11-09T15:46:44;12.10;99.90
35531;DHT22;21637;53.352;-6.356;2022-11-09T15:49:20;12.10;99.90
35531;DHT22;21637;53.352;-6.356;2022-11-09T15:51:47;12.10;99.90
35531;DHT22;21637;53.352;-6.356;2022-11-09T15:54:13;12.10;99.90
35531;DHT22;21637;53.352;-6.356;2022-11-09T15:56:39;12.10;99.90
35531;DHT22;21637;53.352;-6.356;2022-11-09T15:59:05;12.10;99.90
35531;DHT22;21637;53.352;-6.356;2022-11-09T16:01:30;12.10;99.90
35531;DHT22;21637;53.352;-6.356;2022-11-09T16:03:57;12.00;99.90
35531;DHT22;21637;53.352;-6.356;2022-11-09T16:06:22;12.00;99.90
35531;DHT22;21637;53.352;-6.356;2022-11-09T16:08:48;12.00;99.90
35531;DHT22;21637;53.352;-6.356;2022-11-09T16:11:15;11.90;99.90
35531;DHT22;21637;53.352;-6.356;2022-11-09T16:13:41;11.90;99.90
35531;DHT22;21637;53.352;-6.356;2022-11-09T16:16:07;11.90;99.90
35531;DHT22;21637;53.352;-6.356;2022-11-09T16:18:33;12.00;99.90
35531;DHT22;21637;53.352;-6.356;2022-11-09T16:21:12;12.00;99.90
35531;DHT22;21637;53.352;-6.356;2022-11-09T16:23:38;11.90;99.90
35531;DHT22;21637;53.352;-6.356;2022-11-09T16:26:08;12.00;99.90
35531;DHT22;21637;53.352;-6.356;2022-11-09T16:28:34;12.00;99.90
35531;DHT22;21637;53.352;-6.356;2022-11-09T16:31:00;12.00;99.90
35531;DHT22;21637;53.352;-6.356;2022-11-09T16:33:26;12.00;99.90
35531;DHT22;21637;53.352;-6.356;2022-11-09T16:35:52;12.00;99.90
35531;DHT22;21637;53.352;-6.356;2022-11-09T16:38:18;12.00;99.90
35531;DHT22;21637;53.352;-6.356;2022-11-09T16:40:43;12.00;99.90
35531;DHT22;21637;53.352;-6.356;2022-11-09T16:43:09;12.00;99.90
35531;DHT22;21637;53.352;-6.356;2022-11-09T16:45:34;12.00;99.90
35531;DHT22;21637;53.352;-6.356;2022-11-09T16:48:01;12.00;99.90
35531;DHT22;21637;53.352;-6.356;2022-11-09T16:50:27;11.90;99.90
35531;DHT22;21637;53.352;-6.356;2022-11-09T16:52:52;11.90;99.90
35531;DHT22;21637;53.352;-6.356;2022-11-09T16:55:18;12.00;99.90
35531;DHT22;21637;53.352;-6.356;2022-11-09T16:57:44;11.90;99.90
35531;DHT22;21637;53.352;-6.356;2022-11-09T17:00:10;11.90;99.90
35531;DHT22;21637;53.352;-6.356;2022-11-09T17:02:37;11.90;99.90
35531;DHT22;21637;53.352;-6.356;2022-11-09T17:05:03;11.90;99.90
35531;DHT22;21637;53.352;-6.356;2022-11-09T17:07:28;11.80;99.90
35531;DHT22;21637;53.352;-6.356;2022-11-09T17:09:54;11.80;99.90